x

Ilm3 - 27 Miles Se Of Wrightsville Beach, Nc (41037) Weather Station

11:08am - Sun 16th Dec 2018 All times are EST. -5 hours from GMT.

  • Wind
    20mph, 27mph gusts
  • Sea Temp 63°f
  • Air Temp 56°f
  • Sea Pressure 1014.7mb
  • Ilm3 - 27 Miles Se Of Wrightsville Beach, Nc
  • Ilm3 - 27 Miles Se Of Wrightsville Beach, Nc

More Historic Weather Station data

Upgrade to MSW Pro to gain access to the past 30 days of data for over 8000 Wavebouys and Weather Stations around the globe.

Join

Comparision Forecast

View Surf forecast
   
Sun 12/16 11:08am 20 27 mph 1014.7mb 63f 56f
10:08am 20 27 mph 1015.4mb 63f 56f
9:08am 20 27 mph 1015.5mb 63f 57f
8:08am 18 25 mph 1015.4mb 63f 57f
7:08am 20 29 mph 1015.3mb 63f 56f
6:08am 25 31 mph 1014.8mb 63f 57f
5:08am 18 25 mph 1014.3mb 63f 58f
4:08am 22 29 mph 1013.9mb 63f 59f
3:08am 16 25 mph 1014.2mb 63f 61f
2:08am 13 20 mph 1014.7mb 63f 60f
1:08am 16 22 mph 1014.9mb 63f 61f
12:08am 16 22 mph 1015mb 63f 61f
Sat 12/15 11:08pm 18 25 mph 1015.3mb 63f 61f
10:08pm 20 31 mph 1015.1mb 64f 60f
9:08pm 16 22 mph 1014.5mb 64f 62f
8:08pm 13 18 mph 1014.4mb 64f 63f
7:08pm 13 18 mph 1014.3mb 63f 63f
6:08pm 13 20 mph 1014.3mb 63f 63f
5:08pm 16 25 mph 1013.7mb 64f 63f
4:08pm 16 22 mph 1013.2mb 64f 63f
3:08pm 16 22 mph 1012.9mb 64f 64f
2:08pm 11 18 mph 1012.7mb 64f 65f
1:08pm 4 9 mph 1013mb 64f 64f
12:08pm 13 18 mph 1013.1mb 64f 64f
11:08am 7 13 mph 1013.8mb 63f 65f
10:08am 11 16 mph 1015.3mb 63f 67f
9:08am 11 16 mph 1015mb 63f 67f
8:08am 9 13 mph 1014.9mb 63f 65f
7:08am 7 11 mph 1014.7mb 63f 64f
6:08am 7 13 mph 1014.9mb 63f 64f
5:08am 7 13 mph 1014mb 64f 65f
4:08am 9 13 mph 1014.6mb 63f 65f
3:08am 13 20 mph 1015.1mb 63f 65f
2:08am 9 16 mph 1015.7mb 63f 65f
1:08am 9 16 mph 1015.2mb 63f 65f
12:08am 9 13 mph 1015.5mb 63f 66f
Fri 12/14 11:08pm 11 18 mph 1015.6mb 63f 66f
10:08pm 13 20 mph 1015.9mb 63f 67f
9:08pm 18 27 mph 1016.7mb 63f 68f
8:08pm 25 36 mph 1016.3mb 64f 68f
7:08pm 25 34 mph 1016.8mb 64f 68f
6:08pm 18 25 mph 1017.9mb 64f 68f
5:08pm 20 29 mph 1018.3mb 64f 68f
4:08pm 18 22 mph 1018.9mb 64f 67f
3:08pm 25 34 mph 1019.6mb 64f 67f
2:08pm 20 27 mph 1019.5mb 64f 70f
1:08pm 18 27 mph 1020.3mb 64f 69f
12:08pm 18 31 mph 1021.2mb 64f 69f
11:08am 20 29 mph 1022.6mb 64f 67f
10:08am 18 27 mph 1023.4mb 65f 69f
9:08am 20 29 mph 1023.5mb 65f 68f
8:08am 22 29 mph 1023.1mb 65f 69f
7:08am 18 22 mph 1023.5mb 65f 69f
6:08am 18 22 mph 1023.6mb 65f 68f
5:08am 20 27 mph 1023.1mb 65f 68f
4:08am 20 25 mph 1023.4mb 65f 68f
3:08am 20 25 mph 1024.2mb 65f 68f
2:08am 16 22 mph 1024.7mb 65f 68f
1:08am 18 22 mph 1024.7mb 66f 67f
12:08am 18 22 mph 1025.2mb 66f 67f
Thu 12/13 11:08pm 13 20 mph 1025.9mb 65f 67f
10:08pm 13 20 mph 1026.3mb 65f 66f
9:08pm 16 22 mph 1026.6mb 65f 64f
8:08pm 13 20 mph 1026.6mb 65f 64f
7:08pm 11 18 mph 1026.9mb 64f 62f
6:08pm 11 16 mph 1026.7mb 64f 62f
5:08pm 11 13 mph 1026.2mb 64f 60f
4:08pm 7 9 mph 1026.5mb 64f 59f
3:08pm 2 4 mph 1026.2mb 64f 58f
2:08pm 2 4 mph 1026mb 64f 59f
1:08pm 2 4 mph 1026.3mb 64f 58f
12:08pm 4 7 mph 1026.8mb 64f 56f
11:08am 7 11 mph 1027.6mb 64f 57f
10:08am 7 11 mph 1027.7mb 64f 56f
9:08am 7 11 mph 1027.3mb 64f 56f
8:08am 7 11 mph 1026.5mb 64f 55f
7:08am 7 13 mph 1025.7mb 64f 55f
6:08am 9 16 mph 1025mb 64f 55f
5:08am 11 16 mph 1024.6mb 64f 54f
4:08am 11 18 mph 1024mb 64f 54f
3:08am 13 20 mph 1024mb 64f 53f
2:08am 13 20 mph 1024.2mb 64f 53f
1:08am 16 22 mph 1023.9mb 65f 54f
12:08am 13 18 mph 1023.7mb 65f 55f
Wed 12/12 11:08pm 11 16 mph 1023.8mb 65f 55f
10:08pm 9 13 mph 1024mb 66f 56f
9:08pm 7 11 mph 1023.9mb 66f 57f
8:08pm 7 11 mph 1023.6mb 65f 57f
7:08pm 7 11 mph 1023.1mb 65f 57f
6:08pm 7 9 mph 1022.8mb 65f 57f